createdAt,value
2018-12-24T00:01:17.144Z,6.07
2018-12-24T00:03:43.376Z,4.23
2018-12-24T00:06:09.406Z,6.17
2018-12-24T00:08:35.795Z,6.93
2018-12-24T00:11:01.829Z,5.13
2018-12-24T00:13:27.896Z,5.50
2018-12-24T00:15:54.052Z,4.40
2018-12-24T00:18:20.193Z,6.40
2018-12-24T00:20:46.247Z,5.50
2018-12-24T00:23:12.512Z,4.07
2018-12-24T00:25:38.561Z,4.97
2018-12-24T00:28:04.621Z,4.63
2018-12-24T00:30:30.801Z,3.00
2018-12-24T00:32:56.859Z,4.87
2018-12-24T00:35:22.895Z,3.60
2018-12-24T00:37:49.171Z,3.70
2018-12-24T00:40:15.155Z,2.23
2018-12-24T00:42:41.182Z,6.40
2018-12-24T00:45:07.577Z,4.90
2018-12-24T00:47:33.932Z,3.43
2018-12-24T00:49:59.974Z,4.70
2018-12-24T00:52:26.244Z,3.73
2018-12-24T00:54:52.323Z,3.43
2018-12-24T00:57:18.344Z,4.53
2018-12-24T00:59:44.750Z,4.43
2018-12-24T01:02:10.810Z,4.53
2018-12-24T01:04:36.857Z,6.03
2018-12-24T01:07:03.459Z,3.20
2018-12-24T01:09:29.506Z,3.70
2018-12-24T01:11:55.538Z,4.93
2018-12-24T01:14:21.856Z,6.00
2018-12-24T01:16:47.875Z,4.53
2018-12-24T01:19:14.023Z,4.10
2018-12-24T01:21:40.380Z,4.23
2018-12-24T01:24:06.446Z,3.50
2018-12-24T01:26:32.491Z,4.07
2018-12-24T01:28:58.774Z,2.43
2018-12-24T01:31:24.821Z,3.10
2018-12-24T01:33:50.838Z,3.90
2018-12-24T01:36:17.067Z,2.17
2018-12-24T01:38:43.082Z,4.17
2018-12-24T01:41:09.223Z,5.40
2018-12-24T01:43:35.480Z,3.97
2018-12-24T01:46:01.591Z,3.30
2018-12-24T01:48:27.615Z,6.67
2018-12-24T01:50:54.310Z,3.90
2018-12-24T01:53:20.527Z,3.17
2018-12-24T01:55:46.537Z,2.77
2018-12-24T01:58:12.728Z,3.43
2018-12-24T02:00:38.790Z,2.50
2018-12-24T02:03:04.847Z,3.53
2018-12-24T02:05:31.057Z,3.50
2018-12-24T02:07:57.099Z,3.97
2018-12-24T02:10:23.153Z,3.13
2018-12-24T02:12:49.646Z,2.60
2018-12-24T02:15:15.787Z,3.07
2018-12-24T02:18:31.331Z,2.87
2018-12-24T02:20:57.218Z,4.10
2018-12-24T02:23:23.130Z,2.70
2018-12-24T02:25:49.222Z,2.83
2018-12-24T02:28:15.322Z,2.80
2018-12-24T02:30:41.233Z,2.63
2018-12-24T02:33:07.309Z,2.90
2018-12-24T02:35:33.324Z,2.37
2018-12-24T02:37:59.242Z,2.23
2018-12-24T02:40:25.446Z,1.93
2018-12-24T02:42:52.470Z,2.43
2018-12-24T02:45:18.787Z,3.23
2018-12-24T02:47:44.927Z,3.23
2018-12-24T02:50:11.059Z,3.13
2018-12-24T02:52:37.069Z,1.43
2018-12-24T02:55:03.422Z,2.93
2018-12-24T02:57:29.343Z,2.43
2018-12-24T02:59:55.280Z,1.80
2018-12-24T03:02:21.436Z,3.40
2018-12-24T03:04:47.470Z,2.13
2018-12-24T03:07:13.505Z,2.83
2018-12-24T03:09:39.552Z,3.03
2018-12-24T03:12:05.515Z,2.43
2018-12-24T03:14:31.400Z,3.20
2018-12-24T03:16:57.511Z,4.50
2018-12-24T03:19:23.553Z,3.07
2018-12-24T03:21:49.464Z,2.80
2018-12-24T03:24:15.633Z,5.03
2018-12-24T03:26:41.554Z,2.57
2018-12-24T03:29:07.493Z,3.77
2018-12-24T03:31:33.714Z,2.90
2018-12-24T03:33:59.616Z,2.43
2018-12-24T03:36:25.619Z,2.43
2018-12-24T03:38:51.787Z,4.77
2018-12-24T03:41:17.887Z,4.80
2018-12-24T03:43:43.842Z,2.23
2018-12-24T03:46:09.936Z,3.73
2018-12-24T03:48:36.305Z,4.20
2018-12-24T03:51:02.433Z,1.87
2018-12-24T03:53:28.697Z,3.27
2018-12-24T03:55:54.626Z,3.03
2018-12-24T03:58:20.576Z,2.80
2018-12-24T04:00:47.360Z,4.80
2018-12-24T04:03:13.272Z,3.57
2018-12-24T04:05:39.189Z,1.67
2018-12-24T04:08:05.296Z,3.57
2018-12-24T04:10:31.314Z,3.37
2018-12-24T04:12:57.226Z,1.80
2018-12-24T04:15:23.310Z,2.93
2018-12-24T04:17:49.202Z,2.03
2018-12-24T04:20:15.104Z,3.60
2018-12-24T04:22:41.219Z,2.67
2018-12-24T04:25:07.236Z,4.03
2018-12-24T04:27:41.414Z,2.50
2018-12-24T04:30:01.193Z,2.83
2018-12-24T04:32:27.118Z,3.07
2018-12-24T04:34:53.023Z,1.80
2018-12-24T04:37:19.232Z,1.37
2018-12-24T04:39:45.224Z,2.83
2018-12-24T04:42:11.148Z,2.33
2018-12-24T04:44:37.241Z,1.40
2018-12-24T04:47:03.376Z,1.43
2018-12-24T04:49:29.279Z,3.07
2018-12-24T04:51:55.339Z,2.07
2018-12-24T04:54:21.870Z,2.67
2018-12-24T04:56:47.889Z,2.03
2018-12-24T04:59:13.989Z,1.37
2018-12-24T05:01:39.923Z,1.43
2018-12-24T05:04:05.822Z,2.13
2018-12-24T05:06:31.971Z,1.83
2018-12-24T05:08:57.994Z,1.70
2018-12-24T05:11:23.912Z,1.47
2018-12-24T05:13:50.072Z,1.47
2018-12-24T05:16:16.014Z,1.80
2018-12-24T05:18:41.924Z,2.80
2018-12-24T05:21:08.042Z,1.23
2018-12-24T05:23:34.047Z,1.43
2018-12-24T05:25:59.971Z,1.67
2018-12-24T05:28:26.121Z,1.23
2018-12-24T05:30:52.107Z,1.20
2018-12-24T05:33:18.050Z,1.40
2018-12-24T05:35:44.140Z,1.97
2018-12-24T05:38:10.053Z,3.50
2018-12-24T05:40:35.975Z,2.00
2018-12-24T05:43:01.997Z,1.47
2018-12-24T05:45:27.946Z,1.77
2018-12-24T05:47:53.853Z,2.03
2018-12-24T05:50:20.004Z,1.53
2018-12-24T05:52:46.060Z,2.03
2018-12-24T05:55:11.944Z,2.70
2018-12-24T05:57:38.046Z,2.00
2018-12-24T06:00:04.420Z,1.63
2018-12-24T06:02:30.436Z,2.30
2018-12-24T06:04:56.581Z,1.07
2018-12-24T06:07:22.513Z,2.40
2018-12-24T06:09:48.416Z,1.50
2018-12-24T06:12:14.538Z,2.80
2018-12-24T06:14:40.557Z,2.13
2018-12-24T06:17:06.662Z,2.83
2018-12-24T06:19:33.040Z,1.93
2018-12-24T06:21:58.980Z,1.70
2018-12-24T06:24:24.921Z,2.37
2018-12-24T06:26:51.308Z,1.47
2018-12-24T06:29:17.220Z,1.83
2018-12-24T06:31:43.146Z,1.70
2018-12-24T06:34:09.306Z,1.60
2018-12-24T06:36:35.218Z,2.23
2018-12-24T06:39:01.147Z,1.20
2018-12-24T06:41:27.126Z,2.03
2018-12-24T06:43:53.054Z,2.63
2018-12-24T06:46:18.958Z,2.67
2018-12-24T06:48:45.127Z,2.47
2018-12-24T06:51:11.093Z,0.97
2018-12-24T06:53:37.017Z,1.17
2018-12-24T06:56:03.072Z,2.30
2018-12-24T06:58:30.048Z,3.00
2018-12-24T07:00:55.987Z,1.47
2018-12-24T07:03:22.126Z,3.60
2018-12-24T07:05:48.165Z,1.33
2018-12-24T07:08:14.090Z,1.63
2018-12-24T07:10:40.160Z,1.20
2018-12-24T07:13:06.085Z,2.43
2018-12-24T07:15:32.014Z,3.13
2018-12-24T07:17:58.172Z,1.83
2018-12-24T07:20:24.199Z,2.10
2018-12-24T07:22:50.121Z,2.53
2018-12-24T07:25:16.219Z,1.43
2018-12-24T07:27:42.260Z,1.33
2018-12-24T07:30:08.386Z,1.97
2018-12-24T07:32:34.595Z,1.30
2018-12-24T07:35:00.482Z,1.20
2018-12-24T07:37:26.724Z,1.40
2018-12-24T07:39:52.973Z,2.27
2018-12-24T07:42:18.887Z,2.17
2018-12-24T07:44:44.842Z,2.40
2018-12-24T07:47:10.948Z,1.30
2018-12-24T07:49:36.888Z,2.73
2018-12-24T07:52:02.908Z,1.33
2018-12-24T07:54:29.166Z,2.17
2018-12-24T07:56:55.118Z,2.37
2018-12-24T07:59:21.053Z,1.53
2018-12-24T08:01:47.171Z,1.77
2018-12-24T08:04:13.197Z,0.97
2018-12-24T08:06:39.298Z,1.37
2018-12-24T08:09:06.217Z,2.27
2018-12-24T08:11:32.117Z,1.00
2018-12-24T08:13:58.041Z,0.60
2018-12-24T08:16:24.218Z,1.70
2018-12-24T08:18:50.168Z,0.80
2018-12-24T08:21:16.093Z,1.43
2018-12-24T08:23:42.228Z,2.03
2018-12-24T08:26:08.270Z,1.57
2018-12-24T08:28:34.174Z,1.43
2018-12-24T08:31:00.847Z,2.33
2018-12-24T08:33:26.869Z,0.87
2018-12-24T08:35:52.878Z,1.50
2018-12-24T08:38:19.068Z,1.67
2018-12-24T08:40:45.096Z,2.10
2018-12-24T08:43:11.128Z,1.30
2018-12-24T08:45:37.267Z,2.83
2018-12-24T08:48:03.300Z,1.10
2018-12-24T08:50:29.202Z,0.90
2018-12-24T08:52:55.375Z,1.50
2018-12-24T08:55:21.456Z,1.83
2018-12-24T08:57:47.416Z,1.40
2018-12-24T09:00:13.508Z,1.20
2018-12-24T09:02:39.422Z,1.03
2018-12-24T09:05:05.546Z,1.43
2018-12-24T09:07:31.691Z,1.63
2018-12-24T09:09:57.727Z,2.63
2018-12-24T09:12:23.644Z,2.50
2018-12-24T09:14:50.374Z,3.10
2018-12-24T09:17:16.518Z,2.53
2018-12-24T09:19:42.546Z,1.93
2018-12-24T09:22:08.660Z,2.67
2018-12-24T09:24:34.583Z,2.13
2018-12-24T09:27:00.520Z,3.13
2018-12-24T09:29:26.574Z,1.73
2018-12-24T09:31:52.533Z,1.73
2018-12-24T09:34:18.679Z,1.67
2018-12-24T09:36:45.481Z,1.33
2018-12-24T09:39:11.392Z,3.83
2018-12-24T09:41:37.328Z,1.87
2018-12-24T09:44:03.452Z,1.37
2018-12-24T09:46:29.359Z,1.53
2018-12-24T09:48:55.377Z,1.47
2018-12-24T09:51:21.635Z,1.30
2018-12-24T09:53:47.541Z,2.50
2018-12-24T09:56:13.478Z,1.90
2018-12-24T09:58:39.634Z,1.73
2018-12-24T10:01:05.723Z,1.40
2018-12-24T10:03:31.590Z,2.03
2018-12-24T10:05:59.922Z,2.50
2018-12-24T10:08:25.887Z,0.70
2018-12-24T10:10:51.792Z,2.30
2018-12-24T10:13:17.860Z,1.57
2018-12-24T10:15:44.788Z,0.90
2018-12-24T10:18:10.844Z,0.87
2018-12-24T10:20:37.117Z,1.37
2018-12-24T10:23:03.041Z,2.57
2018-12-24T10:25:28.965Z,1.73
2018-12-24T10:27:55.046Z,1.03
2018-12-24T10:30:20.957Z,1.30
2018-12-24T10:32:46.890Z,2.10
2018-12-24T10:35:13.050Z,2.23
2018-12-24T10:37:38.978Z,1.07
2018-12-24T10:40:08.712Z,1.07
2018-12-24T10:42:34.825Z,1.33
2018-12-24T10:45:00.732Z,2.20
2018-12-24T10:47:26.790Z,1.17
2018-12-24T10:49:53.054Z,3.97
2018-12-24T10:52:18.940Z,2.87
2018-12-24T10:54:44.869Z,2.77
2018-12-24T10:57:11.022Z,1.33
2018-12-24T10:59:37.045Z,2.63
2018-12-24T11:02:03.066Z,2.03
2018-12-24T11:04:29.167Z,1.60
2018-12-24T11:06:55.942Z,2.83
2018-12-24T11:09:21.915Z,1.63
2018-12-24T11:11:48.044Z,1.97
2018-12-24T11:14:14.193Z,2.13
2018-12-24T11:16:40.238Z,2.00
2018-12-24T11:19:06.411Z,2.30
2018-12-24T11:21:32.353Z,2.20
2018-12-24T11:23:58.262Z,3.03
2018-12-24T11:26:24.691Z,2.03
2018-12-24T11:28:50.607Z,1.53
2018-12-24T11:31:16.520Z,3.30
2018-12-24T11:33:42.605Z,2.63
2018-12-24T11:36:08.547Z,2.93
2018-12-24T11:38:34.851Z,4.03
2018-12-24T11:41:00.989Z,3.07
2018-12-24T11:43:26.984Z,2.10
2018-12-24T11:45:52.906Z,2.47
2018-12-24T11:48:19.193Z,2.43
2018-12-24T11:50:45.220Z,2.30
2018-12-24T11:53:11.174Z,2.07
2018-12-24T11:55:37.305Z,2.30
2018-12-24T11:58:03.231Z,2.40
2018-12-24T12:00:29.225Z,2.87
2018-12-24T12:02:55.247Z,1.57
2018-12-24T12:05:21.187Z,2.23
2018-12-24T12:07:47.106Z,2.53
2018-12-24T12:10:13.251Z,2.43
2018-12-24T12:12:39.175Z,1.63
2018-12-24T12:15:05.321Z,1.63
2018-12-24T12:17:31.460Z,2.10
2018-12-24T12:19:57.396Z,1.43
2018-12-24T12:22:23.420Z,2.20
2018-12-24T12:24:49.518Z,3.13
2018-12-24T12:27:15.446Z,2.40
2018-12-24T12:29:41.502Z,2.23
2018-12-24T12:32:07.761Z,4.13
2018-12-24T12:34:34.471Z,3.33
2018-12-24T12:37:00.496Z,5.20
2018-12-24T12:39:26.675Z,2.27
2018-12-24T12:41:52.647Z,2.50
2018-12-24T12:44:18.550Z,2.27
2018-12-24T12:46:44.713Z,2.43
2018-12-24T12:49:10.627Z,4.07
2018-12-24T12:51:36.533Z,3.40
2018-12-24T12:54:02.650Z,3.90
2018-12-24T12:56:28.732Z,3.40
2018-12-24T12:58:54.681Z,3.00
2018-12-24T13:01:20.766Z,5.57
2018-12-24T13:03:46.687Z,2.20
2018-12-24T13:06:12.605Z,3.27
2018-12-24T13:08:38.818Z,2.93
2018-12-24T13:11:04.785Z,2.33
2018-12-24T13:13:36.721Z,3.23
2018-12-24T13:15:59.691Z,2.27
2018-12-24T13:18:25.940Z,3.43
2018-12-24T13:20:51.882Z,3.43
2018-12-24T13:23:17.958Z,3.03
2018-12-24T13:25:44.083Z,3.27
2018-12-24T13:28:10.011Z,3.87
2018-12-24T13:30:36.157Z,2.27
2018-12-24T13:33:02.114Z,2.93
2018-12-24T13:35:28.158Z,3.00
2018-12-24T13:37:54.266Z,2.57
2018-12-24T13:40:20.171Z,3.57
2018-12-24T13:42:46.090Z,1.47
2018-12-24T13:45:12.189Z,2.20
2018-12-24T13:47:38.127Z,1.93
2018-12-24T13:50:04.389Z,2.80
2018-12-24T13:52:30.473Z,2.13
2018-12-24T13:54:57.422Z,1.50
2018-12-24T13:57:23.407Z,2.23
2018-12-24T13:59:49.928Z,3.47
2018-12-24T14:02:16.663Z,4.17
2018-12-24T14:04:42.635Z,2.17
2018-12-24T14:07:08.796Z,3.07
2018-12-24T14:09:34.839Z,3.70
2018-12-24T14:12:00.965Z,2.30
2018-12-24T14:14:27.176Z,2.47
2018-12-24T14:16:53.105Z,4.40
2018-12-24T14:19:19.063Z,1.40
2018-12-24T14:21:45.054Z,4.80
2018-12-24T14:24:10.994Z,3.33
2018-12-24T14:26:36.917Z,3.47
2018-12-24T14:29:02.998Z,3.13
2018-12-24T14:31:28.919Z,3.67
2018-12-24T14:33:54.819Z,3.93
2018-12-24T14:36:20.948Z,2.83
2018-12-24T14:38:46.953Z,2.77
2018-12-24T14:41:12.917Z,2.80
2018-12-24T14:43:39.014Z,2.70
2018-12-24T14:46:04.915Z,3.63
2018-12-24T14:48:30.845Z,2.70
2018-12-24T14:50:56.949Z,5.40
2018-12-24T14:53:22.844Z,5.63
2018-12-24T14:55:48.783Z,5.53
2018-12-24T14:58:14.948Z,3.27
2018-12-24T15:00:40.927Z,4.60
2018-12-24T15:03:06.837Z,5.20
2018-12-24T15:05:33.011Z,5.13
2018-12-24T15:07:58.950Z,4.97
2018-12-24T15:10:24.872Z,6.20
2018-12-24T15:12:51.147Z,5.97
2018-12-24T15:15:17.285Z,4.53
2018-12-24T15:17:43.337Z,4.70
2018-12-24T15:20:09.448Z,4.83
2018-12-24T15:22:35.530Z,3.20
2018-12-24T15:25:01.759Z,4.07
2018-12-24T15:27:28.009Z,3.77
2018-12-24T15:29:53.935Z,4.30
2018-12-24T15:32:19.829Z,3.23
2018-12-24T15:34:46.040Z,3.97
2018-12-24T15:37:11.956Z,3.87
2018-12-24T15:39:38.092Z,2.90
2018-12-24T15:42:04.404Z,3.90
2018-12-24T15:44:30.332Z,3.70
2018-12-24T15:46:56.267Z,4.77
2018-12-24T15:49:22.560Z,3.07
2018-12-24T15:51:48.501Z,3.87
2018-12-24T15:54:14.419Z,3.97
2018-12-24T15:56:40.611Z,4.73
2018-12-24T15:59:06.526Z,4.10
2018-12-24T16:01:32.420Z,4.70
2018-12-24T16:03:58.655Z,3.33
2018-12-24T16:06:24.552Z,4.27
2018-12-24T16:08:50.556Z,3.97
2018-12-24T16:11:16.669Z,6.67
2018-12-24T16:13:42.774Z,7.77
2018-12-24T16:16:08.708Z,7.27
2018-12-24T16:18:34.798Z,7.27
2018-12-24T16:21:00.864Z,8.93
2018-12-24T16:23:26.802Z,8.27
2018-12-24T16:25:52.968Z,5.40
2018-12-24T16:28:18.876Z,6.30
2018-12-24T16:30:44.801Z,6.00
2018-12-24T16:33:10.945Z,4.50
2018-12-24T16:35:37.070Z,6.70
2018-12-24T16:38:02.964Z,6.37
2018-12-24T16:40:29.026Z,6.27
2018-12-24T16:42:54.956Z,5.17
2018-12-24T16:45:20.837Z,5.13
2018-12-24T16:47:47.011Z,4.27
2018-12-24T16:50:12.913Z,5.33
2018-12-24T16:52:38.936Z,5.17
2018-12-24T16:55:05.211Z,4.83
2018-12-24T16:57:31.250Z,5.70
2018-12-24T16:59:57.257Z,5.83
2018-12-24T17:02:23.352Z,22.43
2018-12-24T17:04:49.278Z,29.63
2018-12-24T17:07:15.211Z,21.70
2018-12-24T17:09:41.312Z,14.93
2018-12-24T17:12:07.249Z,11.73
2018-12-24T17:14:33.161Z,7.63
2018-12-24T17:17:07.598Z,7.03
2018-12-24T17:19:27.088Z,9.67
2018-12-24T17:21:52.990Z,8.73
2018-12-24T17:24:19.157Z,7.67
2018-12-24T17:26:45.044Z,5.80
2018-12-24T17:29:10.995Z,5.10
2018-12-24T17:31:37.224Z,5.47
2018-12-24T17:34:03.142Z,4.00
2018-12-24T17:36:29.204Z,5.73
2018-12-24T17:38:55.282Z,4.40
2018-12-24T17:41:21.226Z,5.13
2018-12-24T17:43:47.124Z,5.83
2018-12-24T17:46:13.229Z,4.57
2018-12-24T17:48:39.161Z,4.53
2018-12-24T17:51:05.084Z,4.70
2018-12-24T17:53:31.148Z,4.47
2018-12-24T17:55:57.374Z,4.73
2018-12-24T17:58:23.286Z,4.77
2018-12-24T18:00:49.540Z,4.30
2018-12-24T18:03:15.478Z,4.37
2018-12-24T18:05:41.382Z,3.93
2018-12-24T18:08:07.668Z,5.93
2018-12-24T18:10:33.672Z,4.40
2018-12-24T18:12:59.614Z,4.13
2018-12-24T18:15:25.789Z,5.57
2018-12-24T18:17:51.707Z,3.27
2018-12-24T18:20:17.741Z,6.40
2018-12-24T18:22:43.857Z,5.23
2018-12-24T18:25:09.758Z,6.17
2018-12-24T18:27:35.703Z,9.13
2018-12-24T18:30:02.058Z,4.60
2018-12-24T18:32:27.961Z,5.33
2018-12-24T18:34:53.896Z,5.57
2018-12-24T18:37:19.962Z,6.67
2018-12-24T18:39:47.132Z,6.83
2018-12-24T18:42:13.143Z,5.70
2018-12-24T18:44:39.270Z,7.57
2018-12-24T18:47:05.161Z,9.17
2018-12-24T18:49:31.106Z,5.83
2018-12-24T18:51:57.081Z,6.13
2018-12-24T18:54:23.139Z,5.97
2018-12-24T18:56:49.056Z,6.60
2018-12-24T18:59:15.257Z,5.23
2018-12-24T19:01:41.186Z,6.53
2018-12-24T19:04:07.131Z,6.33
2018-12-24T19:06:33.217Z,5.90
2018-12-24T19:08:59.354Z,6.33
2018-12-24T19:11:25.270Z,7.13
2018-12-24T19:13:51.449Z,7.33
2018-12-24T19:16:17.481Z,4.83
2018-12-24T19:18:43.405Z,5.33
2018-12-24T19:21:09.582Z,6.00
2018-12-24T19:23:35.613Z,4.97
2018-12-24T19:26:01.730Z,5.97
2018-12-24T19:28:27.825Z,5.07
2018-12-24T19:30:53.824Z,7.40
2018-12-24T19:33:19.767Z,4.93
2018-12-24T19:35:45.868Z,7.30
2018-12-24T19:38:11.901Z,3.70
2018-12-24T19:40:37.919Z,4.27
2018-12-24T19:43:04.048Z,4.67
2018-12-24T19:45:30.070Z,4.87
2018-12-24T19:47:56.112Z,5.70
2018-12-24T19:50:22.213Z,4.87
2018-12-24T19:52:48.151Z,4.50
2018-12-24T19:55:14.144Z,4.50
2018-12-24T19:57:40.307Z,6.07
2018-12-24T20:00:07.354Z,2.73
2018-12-24T20:02:33.391Z,6.47
2018-12-24T20:04:59.511Z,6.30
2018-12-24T20:07:25.442Z,6.67
2018-12-24T20:09:51.363Z,9.43
2018-12-24T20:12:17.525Z,7.20
2018-12-24T20:14:43.462Z,6.37
2018-12-24T20:17:09.503Z,4.00
2018-12-24T20:19:35.663Z,4.43
2018-12-24T20:22:01.775Z,5.40
2018-12-24T20:24:27.714Z,5.67
2018-12-24T20:26:54.002Z,6.20
2018-12-24T20:29:20.141Z,3.87
2018-12-24T20:31:46.058Z,5.20
2018-12-24T20:34:12.242Z,8.73
2018-12-24T20:36:38.307Z,5.50
2018-12-24T20:39:06.525Z,4.20
2018-12-24T20:41:32.719Z,3.77
2018-12-24T20:43:58.659Z,5.20
2018-12-24T20:46:24.548Z,3.57
2018-12-24T20:48:52.484Z,4.53
2018-12-24T20:51:18.524Z,4.50
2018-12-24T20:53:44.540Z,7.33
2018-12-24T20:56:10.708Z,4.27
2018-12-24T20:58:36.610Z,5.63
2018-12-24T21:01:02.763Z,5.20
2018-12-24T21:03:28.946Z,8.90
2018-12-24T21:05:54.867Z,4.83
2018-12-24T21:08:20.807Z,5.77
2018-12-24T21:10:46.857Z,5.30
2018-12-24T21:13:12.796Z,4.37
2018-12-24T21:15:38.738Z,4.60
2018-12-24T21:18:04.863Z,4.47
2018-12-24T21:20:30.800Z,4.57
2018-12-24T21:22:56.717Z,4.47
2018-12-24T21:25:22.860Z,4.47
2018-12-24T21:27:48.804Z,3.50
2018-12-24T21:30:14.832Z,4.40
2018-12-24T21:32:41.089Z,3.60
2018-12-24T21:35:08.037Z,4.10
2018-12-24T21:37:34.259Z,4.17
2018-12-24T21:40:00.530Z,4.60
2018-12-24T21:42:26.445Z,4.73
2018-12-24T21:44:52.453Z,5.23
2018-12-24T21:47:18.687Z,3.80
2018-12-24T21:49:45.941Z,5.87
2018-12-24T21:52:12.084Z,4.57
2018-12-24T21:54:38.152Z,5.20
2018-12-24T21:57:05.114Z,5.90
2018-12-24T21:59:31.028Z,7.17
2018-12-24T22:01:57.257Z,8.33
2018-12-24T22:04:23.276Z,5.90
2018-12-24T22:06:49.194Z,7.00
2018-12-24T22:09:15.606Z,7.60
2018-12-24T22:11:41.618Z,4.97
2018-12-24T22:14:07.615Z,5.63
2018-12-24T22:16:33.841Z,6.00
2018-12-24T22:18:59.796Z,7.23
2018-12-24T22:21:25.812Z,4.53
2018-12-24T22:23:52.084Z,8.63
2018-12-24T22:26:18.013Z,4.87
2018-12-24T22:28:43.914Z,5.47
2018-12-24T22:31:10.158Z,6.10
2018-12-24T22:33:36.471Z,5.17
2018-12-24T22:36:02.597Z,5.53
2018-12-24T22:38:28.741Z,5.27
2018-12-24T22:40:54.714Z,6.77
2018-12-24T22:43:20.806Z,4.93
2018-12-24T22:45:46.898Z,5.67
2018-12-24T22:48:12.846Z,8.03
2018-12-24T22:50:38.746Z,8.73
2018-12-24T22:53:05.082Z,7.53
2018-12-24T22:55:30.970Z,9.27
2018-12-24T22:57:57.021Z,7.73
2018-12-24T23:00:25.191Z,8.27
2018-12-24T23:02:51.091Z,6.90
2018-12-24T23:05:17.044Z,5.83
2018-12-24T23:07:43.121Z,4.10
2018-12-24T23:10:09.145Z,5.30
2018-12-24T23:12:35.261Z,5.70
2018-12-24T23:15:01.329Z,7.73
2018-12-24T23:17:27.366Z,5.67
2018-12-24T23:19:53.254Z,6.83
2018-12-24T23:22:19.294Z,7.17
2018-12-24T23:24:45.503Z,4.30
2018-12-24T23:27:11.423Z,6.03
2018-12-24T23:29:37.582Z,5.23
2018-12-24T23:32:03.502Z,5.07
2018-12-24T23:34:29.431Z,3.47
2018-12-24T23:36:55.569Z,4.57
2018-12-24T23:39:21.593Z,3.53
2018-12-24T23:41:47.616Z,7.87
2018-12-24T23:44:13.847Z,3.47
2018-12-24T23:46:39.919Z,3.00
2018-12-24T23:49:05.935Z,2.50
2018-12-24T23:51:31.941Z,2.87
2018-12-24T23:53:57.862Z,4.87
2018-12-24T23:56:23.872Z,2.60
2018-12-24T23:58:50.169Z,3.30
